Time;durP1;ratioP1;P1;durP2;ratioP2;P2;SDS_P1;SDS_P2;PMS_P1;PMS_P2;Temp;Humidity;BMP_temperature;BMP_pressure;BME280_temperature;BME280_humidity;BME280_pressure;Samples;Min_cycle;Max_cycle;Signal;HPM_P1;HPM_P2
2023/08/03 00:00:10;;;;;;;2.30;1.10;;;;;;;16.83;100.00;98780.96;105496;1252;69176;-63
2023/08/03 00:03:01;;;;;;;2.00;1.20;;;;;;;16.88;100.00;98775.31;105476;1253;75772;-64
2023/08/03 00:05:29;;;;;;;1.90;1.20;;;;;;;16.95;100.00;98783.73;105590;1256;83592;-64
2023/08/03 00:07:56;;;;;;;4.50;1.70;;;;;;;17.02;100.00;98774.16;105514;1254;73623;-63
2023/08/03 00:10:23;;;;;;;1.40;1.20;;;;;;;17.06;100.00;98753.77;105494;1253;69059;-64
2023/08/03 00:12:51;;;;;;;2.10;1.30;;;;;;;17.11;100.00;98742.10;105508;1253;69145;-64
2023/08/03 00:15:18;;;;;;;4.00;1.30;;;;;;;17.15;100.00;98748.80;105640;1253;74857;-64
2023/08/03 00:17:45;;;;;;;2.70;1.50;;;;;;;17.20;100.00;98751.13;105594;1256;83279;-64
2023/08/03 00:20:12;;;;;;;3.10;1.10;;;;;;;17.25;100.00;98754.83;105546;1256;73853;-64
2023/08/03 00:22:39;;;;;;;2.70;1.20;;;;;;;17.28;100.00;98773.21;105501;1254;69503;-64
2023/08/03 00:25:07;;;;;;;2.00;1.20;;;;;;;17.34;100.00;98783.77;105531;1253;69288;-64
2023/08/03 00:27:34;;;;;;;2.00;1.30;;;;;;;17.38;100.00;98776.63;105582;1256;74956;-64
2023/08/03 00:30:01;;;;;;;2.30;1.00;;;;;;;17.43;100.00;98769.33;105563;1256;83161;-65
2023/08/03 00:32:28;;;;;;;2.10;1.10;;;;;;;17.47;100.00;98759.45;105537;1253;73751;-65
2023/08/03 00:34:55;;;;;;;1.70;1.10;;;;;;;17.50;100.00;98754.39;105543;1255;69237;-64
2023/08/03 00:37:22;;;;;;;1.50;1.00;;;;;;;17.52;100.00;98771.54;105446;1257;69158;-64
2023/08/03 00:39:49;;;;;;;1.70;1.40;;;;;;;17.53;100.00;98771.79;105555;1253;73782;-64
2023/08/03 00:42:16;;;;;;;1.60;1.30;;;;;;;17.55;100.00;98774.95;105482;1254;83548;-64
2023/08/03 00:44:43;;;;;;;2.10;1.50;;;;;;;17.56;100.00;98792.13;105575;1253;73666;-64
2023/08/03 00:47:10;;;;;;;3.10;0.90;;;;;;;17.57;100.00;98799.86;105434;1257;69144;-64
2023/08/03 00:49:37;;;;;;;1.40;1.00;;;;;;;17.57;100.00;98802.84;105422;1257;69100;-64
2023/08/03 00:52:05;;;;;;;3.40;1.10;;;;;;;17.56;100.00;98807.30;105564;1256;73734;-64
2023/08/03 00:54:32;;;;;;;2.30;1.20;;;;;;;17.56;100.00;98795.87;105426;1257;83329;-63
2023/08/03 00:56:59;;;;;;;2.30;1.10;;;;;;;17.57;100.00;98797.23;105489;1253;72808;-63
2023/08/03 00:59:26;;;;;;;1.80;1.40;;;;;;;17.58;100.00;98790.05;105493;1256;69852;-63
2023/08/03 01:01:53;;;;;;;1.70;1.20;;;;;;;17.57;100.00;98801.08;105546;1253;69493;-63
2023/08/03 01:04:20;;;;;;;2.00;1.20;;;;;;;17.55;100.00;98805.69;105542;1253;73742;-63
2023/08/03 01:06:47;;;;;;;2.00;1.40;;;;;;;17.54;100.00;98821.30;105431;1258;82498;-63
2023/08/03 01:09:14;;;;;;;1.30;0.90;;;;;;;17.53;100.00;98821.21;105482;1253;72521;-62
2023/08/03 01:11:41;;;;;;;1.50;1.10;;;;;;;17.53;100.00;98828.66;105517;1253;69105;-63
2023/08/03 01:14:09;;;;;;;1.50;1.20;;;;;;;17.53;100.00;98828.60;105706;1255;69634;-63
2023/08/03 01:16:36;;;;;;;1.80;1.10;;;;;;;17.54;100.00;98823.64;105532;1256;75184;-62
2023/08/03 01:19:04;;;;;;;2.80;1.20;;;;;;;17.53;100.00;98810.29;105584;1256;83624;-62
2023/08/03 01:21:32;;;;;;;2.90;1.50;;;;;;;17.53;100.00;98814.92;105584;1253;73396;-63
2023/08/03 01:23:59;;;;;;;3.00;1.20;;;;;;;17.52;100.00;98822.23;105473;1257;69222;-64
2023/08/03 01:26:26;;;;;;;2.00;1.30;;;;;;;17.51;100.00;98817.41;105573;1256;69173;-63
2023/08/03 01:28:53;;;;;;;1.40;1.10;;;;;;;17.49;100.00;98815.63;105559;1254;73864;-63
2023/08/03 01:31:20;;;;;;;2.00;1.10;;;;;;;17.48;100.00;98816.90;105515;1253;83668;-63
2023/08/03 01:33:47;;;;;;;1.60;1.20;;;;;;;17.48;100.00;98809.73;105504;1253;72524;-63
2023/08/03 01:36:14;;;;;;;2.40;1.10;;;;;;;17.47;100.00;98799.24;105529;1256;69291;-63
2023/08/03 01:38:41;;;;;;;0.80;0.80;;;;;;;17.44;100.00;98811.69;105595;1256;69221;-63
2023/08/03 01:41:08;;;;;;;1.30;1.00;;;;;;;17.38;100.00;98818.48;105591;1253;73820;-63
2023/08/03 01:43:35;;;;;;;1.40;1.10;;;;;;;17.34;100.00;98825.09;105616;1253;81488;-64
2023/08/03 01:46:02;;;;;;;1.80;1.00;;;;;;;17.30;100.00;98820.52;105505;1253;72755;-63
2023/08/03 01:48:29;;;;;;;1.60;1.00;;;;;;;17.27;100.00;98812.43;105602;1253;69028;-63
2023/08/03 01:50:56;;;;;;;1.50;0.90;;;;;;;17.22;100.00;98816.27;105460;1253;69180;-63
2023/08/03 01:53:23;;;;;;;1.30;0.80;;;;;;;17.15;100.00;98817.04;105443;1253;73726;-63
2023/08/03 01:55:50;;;;;;;1.60;1.10;;;;;;;17.08;100.00;98819.23;105507;1253;82313;-63
2023/08/03 01:58:17;;;;;;;3.20;1.10;;;;;;;17.03;100.00;98822.58;105463;1253;73920;-63
2023/08/03 02:00:44;;;;;;;1.50;1.20;;;;;;;16.97;100.00;98824.84;105418;1258;69276;-63
2023/08/03 02:03:14;;;;;;;1.20;1.00;;;;;;;16.92;100.00;98828.33;105484;1259;69107;-63
2023/08/03 02:05:41;;;;;;;2.10;1.20;;;;;;;16.85;100.00;98830.45;105478;1257;74845;-63
2023/08/03 02:08:08;;;;;;;2.20;1.20;;;;;;;16.79;100.00;98838.80;105641;1253;82553;-63
2023/08/03 02:10:36;;;;;;;3.60;1.30;;;;;;;16.73;100.00;98841.41;105498;1259;72672;-63
2023/08/03 02:13:03;;;;;;;3.90;1.40;;;;;;;16.69;100.00;98841.55;105471;1256;69120;-63
2023/08/03 02:15:31;;;;;;;3.20;1.20;;;;;;;16.68;100.00;98833.02;105526;1253;69200;-63
2023/08/03 02:17:58;;;;;;;1.10;1.00;;;;;;;16.68;100.00;98827.90;105522;1253;74674;-63
2023/08/03 02:20:25;;;;;;;1.10;1.00;;;;;;;16.68;100.00;98829.48;105442;1258;83624;-63
2023/08/03 02:22:52;;;;;;;2.50;1.10;;;;;;;16.69;100.00;98832.79;105508;1254;73558;-64
2023/08/03 02:25:23;;;;;;;3.40;1.20;;;;;;;16.68;100.00;98831.05;105571;1256;69142;-62
2023/08/03 02:27:50;;;;;;;3.60;1.20;;;;;;;16.68;100.00;98834.57;105495;1252;69157;-63
2023/08/03 02:30:18;;;;;;;4.00;1.40;;;;;;;16.67;100.00;98833.83;105552;1255;74040;-63
2023/08/03 02:32:45;;;;;;;3.50;1.30;;;;;;;16.64;100.00;98829.44;105540;1256;83596;-63
2023/08/03 02:35:11;;;;;;;6.20;1.10;;;;;;;16.63;100.00;98832.01;105508;1253;71757;-63
2023/08/03 02:37:39;;;;;;;1.80;1.20;;;;;;;16.63;100.00;98837.36;105506;1253;69077;-63
2023/08/03 02:40:10;;;;;;;2.00;1.40;;;;;;;16.61;100.00;98833.47;105540;1256;69469;-63
2023/08/03 02:42:37;;;;;;;1.60;1.00;;;;;;;16.60;100.00;98824.55;105602;1256;74242;-63
2023/08/03 02:45:06;;;;;;;2.40;1.50;;;;;;;16.58;100.00;98827.01;105589;1256;83387;-63
2023/08/03 02:47:33;;;;;;;1.80;1.20;;;;;;;16.57;100.00;98828.84;105446;1253;73395;-63
2023/08/03 02:50:01;;;;;;;1.90;1.40;;;;;;;16.56;100.00;98830.16;105521;1251;69050;-63
2023/08/03 02:52:29;;;;;;;2.70;1.30;;;;;;;16.56;100.00;98834.60;105559;1255;69107;-63
2023/08/03 02:54:56;;;;;;;3.50;1.60;;;;;;;16.56;100.00;98840.21;105535;1255;73791;-63
2023/08/03 02:57:23;;;;;;;3.60;1.30;;;;;;;16.55;100.00;98839.98;105495;1256;82414;-64
2023/08/03 02:59:50;;;;;;;3.10;1.30;;;;;;;16.53;100.00;98845.25;105487;1253;72581;-63
2023/08/03 03:02:18;;;;;;;4.90;1.90;;;;;;;16.51;100.00;98857.90;105467;1253;69125;-63
2023/08/03 03:04:45;;;;;;;1.90;1.40;;;;;;;16.48;100.00;98873.36;105532;1256;69190;-63
2023/08/03 03:07:12;;;;;;;1.60;1.20;;;;;;;16.43;100.00;98884.50;105504;1255;74940;-63
2023/08/03 03:09:40;;;;;;;2.60;1.30;;;;;;;16.39;100.00;98883.14;105524;1255;82337;-63
2023/08/03 03:12:08;;;;;;;2.80;1.10;;;;;;;16.34;100.00;98875.10;105498;1253;72650;-63
2023/08/03 03:14:42;;;;;;;4.20;1.10;;;;;;;16.31;100.00;98881.32;105489;1253;69701;-63
2023/08/03 03:17:09;;;;;;;2.70;1.20;;;;;;;16.29;100.00;98912.54;105238;1258;69367;-62
2023/08/03 03:19:36;;;;;;;1.30;1.00;;;;;;;16.27;100.00;98932.91;105468;1254;73675;-62
2023/08/03 03:22:05;;;;;;;2.70;1.40;;;;;;;16.29;100.00;98937.77;105525;1254;82584;-62
2023/08/03 03:24:33;;;;;;;2.50;1.20;;;;;;;16.32;100.00;98925.02;105547;1256;72848;-62
2023/08/03 03:27:01;;;;;;;1.80;1.10;;;;;;;16.38;100.00;98917.77;105615;1254;69132;-62
2023/08/03 03:29:29;;;;;;;4.10;1.40;;;;;;;16.43;100.00;98920.84;105569;1255;69186;-62
2023/08/03 03:31:56;;;;;;;3.10;1.40;;;;;;;16.49;100.00;98911.92;105457;1254;74817;-62
2023/08/03 03:34:24;;;;;;;3.10;1.20;;;;;;;16.54;100.00;98912.34;105552;1254;82718;-63
2023/08/03 03:36:52;;;;;;;1.50;0.90;;;;;;;16.59;100.00;98914.05;105471;1256;74019;-62
2023/08/03 03:39:19;;;;;;;3.50;1.20;;;;;;;16.62;100.00;98908.46;105501;1253;69194;-62
2023/08/03 03:41:46;;;;;;;2.50;1.00;;;;;;;16.66;100.00;98897.05;105585;1256;69824;-63
2023/08/03 03:44:14;;;;;;;2.10;1.30;;;;;;;16.70;100.00;98896.70;105544;1256;73946;-62
2023/08/03 03:46:41;;;;;;;6.10;1.30;;;;;;;16.72;100.00;98900.88;105449;1257;83283;-62
2023/08/03 03:49:09;;;;;;;2.30;1.10;;;;;;;16.76;100.00;98911.36;105504;1253;72627;-62
2023/08/03 03:51:37;;;;;;;2.30;1.00;;;;;;;16.77;100.00;98919.59;105576;1254;69279;-62
2023/08/03 03:54:04;;;;;;;1.90;0.80;;;;;;;16.78;100.00;98922.69;105572;1255;69305;-62
2023/08/03 03:56:31;;;;;;;3.40;1.20;;;;;;;16.78;100.00;98910.14;105630;1254;74838;-61
2023/08/03 03:58:59;;;;;;;4.00;0.90;;;;;;;16.78;100.00;98902.38;105628;1256;83392;-62
2023/08/03 04:01:27;;;;;;;2.40;0.80;;;;;;;16.78;100.00;98900.98;105608;1256;73538;-62
2023/08/03 04:03:55;;;;;;;4.60;1.20;;;;;;;16.77;100.00;98913.02;105538;1252;69180;-61
2023/08/03 04:06:22;;;;;;;6.90;1.10;;;;;;;16.78;100.00;98929.23;105561;1256;69190;-61
2023/08/03 04:08:50;;;;;;;3.20;1.10;;;;;;;16.77;100.00;98931.59;105628;1255;73788;-62
2023/08/03 04:11:17;;;;;;;2.60;0.90;;;;;;;16.77;100.00;98938.10;105515;1256;83161;-62
2023/08/03 04:13:44;;;;;;;1.90;1.00;;;;;;;16.77;100.00;98939.55;105471;1253;73589;-62
2023/08/03 04:16:11;;;;;;;3.50;1.10;;;;;;;16.78;100.00;98944.69;105428;1254;69133;-63
2023/08/03 04:18:39;;;;;;;5.70;1.40;;;;;;;16.79;100.00;98945.49;105471;1253;69055;-62
2023/08/03 04:21:06;;;;;;;2.40;1.20;;;;;;;16.79;100.00;98946.02;105456;1254;75016;-62
2023/08/03 04:23:33;;;;;;;4.80;1.20;;;;;;;16.80;100.00;98943.30;105581;1258;83606;-61
2023/08/03 04:26:03;;;;;;;3.40;1.20;;;;;;;16.81;100.00;98941.65;105401;1257;72774;-61
2023/08/03 04:28:30;;;;;;;2.60;1.10;;;;;;;16.85;100.00;98947.27;105463;1253;69103;-61
2023/08/03 04:30:57;;;;;;;2.00;1.00;;;;;;;16.88;100.00;98947.50;105527;1253;69166;-61
2023/08/03 04:33:25;;;;;;;2.30;0.90;;;;;;;16.92;100.00;98946.13;105531;1253;73686;-61
2023/08/03 04:35:56;;;;;;;3.20;0.90;;;;;;;16.97;100.00;98966.40;105497;1258;83584;-61
2023/08/03 04:38:31;;;;;;;2.40;1.00;;;;;;;17.02;100.00;98986.25;105501;1257;74644;-61
2023/08/03 04:41:01;;;;;;;3.90;1.00;;;;;;;17.08;100.00;98973.30;105468;1251;69010;-62
2023/08/03 04:43:30;;;;;;;5.60;1.40;;;;;;;17.17;100.00;98946.44;105521;1253;69222;-61
2023/08/03 04:45:57;;;;;;;4.90;1.40;;;;;;;17.26;100.00;98912.32;105545;1251;73726;-62
2023/08/03 04:48:24;;;;;;;3.00;1.10;;;;;;;17.33;100.00;98927.59;105635;1256;83155;-62
2023/08/03 04:50:52;;;;;;;6.80;1.20;;;;;;;17.38;100.00;98953.02;105540;1255;73548;-61
2023/08/03 04:53:21;;;;;;;2.10;1.00;;;;;;;17.44;100.00;98961.74;105535;1252;69198;-62
2023/08/03 04:55:48;;;;;;;6.20;1.30;;;;;;;17.47;100.00;98959.54;105302;1258;69193;-62
2023/08/03 04:58:15;;;;;;;3.60;1.10;;;;;;;17.50;100.00;98962.65;105447;1259;72726;-62
2023/08/03 05:00:46;;;;;;;2.50;1.10;;;;;;;17.53;100.00;98965.75;105469;1254;82463;-62
2023/08/03 05:03:13;;;;;;;3.30;1.20;;;;;;;17.54;100.00;98970.34;105449;1253;72156;-62
2023/08/03 05:05:40;;;;;;;3.00;1.20;;;;;;;17.56;100.00;98975.84;105449;1254;69056;-62
2023/08/03 05:08:07;;;;;;;2.70;1.00;;;;;;;17.57;100.00;98978.61;105503;1258;69232;-63
2023/08/03 05:10:35;;;;;;;2.60;1.30;;;;;;;17.56;100.00;98977.41;105510;1253;74998;-63
2023/08/03 05:13:02;;;;;;;4.00;1.10;;;;;;;17.54;100.00;98977.93;105168;1253;83510;-64
2023/08/03 05:15:29;;;;;;;3.30;1.10;;;;;;;17.51;100.00;98972.46;105170;1258;72960;-65
2023/08/03 05:17:56;;;;;;;2.40;1.00;;;;;;;17.47;100.00;98970.50;105192;1259;69130;-65
2023/08/03 05:20:24;;;;;;;4.60;1.10;;;;;;;17.43;100.00;98967.65;105485;1253;70675;-64
2023/08/03 05:22:51;;;;;;;3.50;1.10;;;;;;;17.35;100.00;98964.61;105486;1253;74809;-64
2023/08/03 05:25:18;;;;;;;3.80;1.10;;;;;;;17.30;100.00;98963.35;105468;1258;82637;-63
2023/08/03 05:27:45;;;;;;;2.80;1.40;;;;;;;17.28;100.00;98962.24;105410;1258;73858;-67
2023/08/03 05:30:12;;;;;;;5.00;1.30;;;;;;;17.28;100.00;98963.82;105492;1253;69180;-63
2023/08/03 05:32:38;;;;;;;3.70;1.10;;;;;;;17.31;100.00;98969.23;105466;1256;69190;-65
2023/08/03 05:35:06;;;;;;;6.60;1.50;;;;;;;17.35;100.00;98970.99;105474;1253;75068;-63
2023/08/03 05:37:33;;;;;;;5.10;1.20;;;;;;;17.42;100.00;98967.36;105655;1257;83821;-64
2023/08/03 05:40:03;;;;;;;3.40;1.10;;;;;;;17.50;100.00;98961.56;105697;1253;72727;-66
2023/08/03 05:42:36;;;;;;;4.00;1.30;;;;;;;17.59;100.00;98960.58;105618;1258;69159;-67
2023/08/03 05:45:33;;;;;;;3.10;1.00;;;;;;;17.68;100.00;98952.00;105608;1253;69027;-63
2023/08/03 05:48:00;;;;;;;2.90;1.10;;;;;;;17.77;100.00;98953.84;105673;1259;74759;-63
2023/08/03 05:50:27;;;;;;;3.90;1.10;;;;;;;17.87;100.00;98956.20;105725;1258;83766;-66
2023/08/03 05:52:54;;;;;;;2.40;0.90;;;;;;;17.99;100.00;98958.25;105519;1256;73789;-64
2023/08/03 05:55:22;;;;;;;1.50;0.90;;;;;;;18.12;100.00;98961.48;105511;1257;69262;-64
2023/08/03 05:57:49;;;;;;;3.60;1.00;;;;;;;18.24;100.00;98960.55;105551;1257;69231;-63
2023/08/03 06:00:20;;;;;;;6.00;0.80;;;;;;;18.35;100.00;98960.24;105544;1259;74109;-64
2023/08/03 06:02:47;;;;;;;2.30;0.90;;;;;;;18.47;100.00;98964.60;105610;1259;83348;-64
2023/08/03 06:05:33;;;;;;;6.40;1.20;;;;;;;18.60;100.00;98969.95;105632;1257;73767;-63
2023/08/03 06:07:59;;;;;;;3.20;1.10;;;;;;;18.75;100.00;98973.70;105482;1253;70932;-63
2023/08/03 06:10:28;;;;;;;5.00;1.30;;;;;;;18.86;100.00;98976.04;105582;1253;69112;-64
2023/08/03 06:12:55;;;;;;;4.10;1.40;;;;;;;18.98;100.00;98979.73;105650;1253;74903;-61
2023/08/03 06:15:23;;;;;;;4.30;1.30;;;;;;;19.10;100.00;98982.27;105566;1259;83435;-64
2023/08/03 06:18:01;;;;;;;3.50;1.10;;;;;;;19.21;100.00;98987.14;105521;1258;72522;-64
2023/08/03 06:20:29;;;;;;;4.20;1.60;;;;;;;19.34;100.00;98983.02;105705;1258;69166;-64
2023/08/03 06:22:55;;;;;;;2.80;1.10;;;;;;;19.45;100.00;98987.28;105522;1259;69113;-64
2023/08/03 06:25:23;;;;;;;6.60;1.20;;;;;;;19.53;100.00;98988.95;105460;1256;73833;-64
2023/08/03 06:27:50;;;;;;;3.80;1.00;;;;;;;19.63;100.00;98989.65;105643;1254;82817;-64
2023/08/03 06:30:17;;;;;;;7.30;1.50;;;;;;;19.72;100.00;98992.80;105646;1257;72595;-63
2023/08/03 06:32:44;;;;;;;3.80;1.00;;;;;;;19.82;100.00;99000.56;105500;1254;69171;-63
2023/08/03 06:35:32;;;;;;;2.90;1.10;;;;;;;19.92;100.00;99002.98;105622;1258;69309;-62
2023/08/03 06:38:00;;;;;;;3.40;1.20;;;;;;;20.08;100.00;99001.91;105533;1253;74913;-65
2023/08/03 06:40:27;;;;;;;5.10;1.10;;;;;;;20.25;100.00;99000.08;105715;1259;83531;-65
2023/08/03 06:42:54;;;;;;;3.50;1.20;;;;;;;20.43;100.00;99002.15;105495;1255;73518;-66
2023/08/03 06:45:21;;;;;;;2.40;1.20;;;;;;;20.60;100.00;99014.80;105681;1252;69052;-65
2023/08/03 06:47:49;;;;;;;4.00;1.00;;;;;;;20.73;100.00;99020.42;105746;1256;69245;-66
2023/08/03 06:50:16;;;;;;;7.00;1.30;;;;;;;20.87;100.00;99008.34;105632;1257;74975;-65
2023/08/03 06:52:44;;;;;;;4.60;1.40;;;;;;;20.99;100.00;99009.34;105592;1257;83414;-65
2023/08/03 06:55:11;;;;;;;2.00;0.90;;;;;;;21.04;100.00;99017.33;105706;1256;72719;-66
2023/08/03 06:57:37;;;;;;;5.10;1.10;;;;;;;21.09;100.00;99019.38;105556;1257;69094;-65
2023/08/03 07:00:05;;;;;;;2.80;1.20;;;;;;;21.13;99.04;99019.85;105585;1256;69175;-65
2023/08/03 07:02:32;;;;;;;5.70;1.20;;;;;;;21.17;97.18;99021.84;105597;1253;73764;-66
2023/08/03 07:04:59;;;;;;;8.40;1.00;;;;;;;21.20;95.85;99025.44;105400;1257;83506;-65
2023/08/03 07:07:27;;;;;;;6.10;1.20;;;;;;;21.23;94.73;99022.63;105428;1259;73536;-66
2023/08/03 07:09:54;;;;;;;5.00;1.30;;;;;;;21.26;93.43;99032.20;105615;1253;69159;-66
2023/08/03 07:12:21;;;;;;;5.10;1.20;;;;;;;21.31;92.97;99028.86;105503;1264;70811;-66
2023/08/03 07:14:48;;;;;;;3.50;1.00;;;;;;;21.38;92.49;99030.52;105682;1257;74880;-64
2023/08/03 07:17:15;;;;;;;3.60;1.00;;;;;;;21.43;94.97;99033.34;105489;1259;83276;-65
2023/08/03 07:19:43;;;;;;;3.90;1.00;;;;;;;21.49;96.05;99031.31;105537;1252;72505;-64
2023/08/03 07:22:11;;;;;;;3.80;0.90;;;;;;;21.50;95.23;99034.19;105655;1253;69183;-65
2023/08/03 07:24:38;;;;;;;6.00;1.50;;;;;;;21.50;94.17;99036.31;105583;1257;69713;-65
2023/08/03 07:27:07;;;;;;;6.50;0.90;;;;;;;21.51;92.67;99032.18;105642;1257;74551;-65
2023/08/03 07:29:37;;;;;;;5.60;1.30;;;;;;;21.52;90.91;99032.04;105669;1256;83463;-64
2023/08/03 07:32:04;;;;;;;;;;;;;;;21.56;89.60;99031.49;105663;1259;74007;-64
2023/08/03 07:34:30;;;;;;;4.00;0.80;;;;;;;21.57;88.93;99022.95;105528;1257;69209;-64
2023/08/03 07:36:58;;;;;;;3.10;0.90;;;;;;;21.56;87.68;99018.09;105570;1257;69250;-64
2023/08/03 07:39:25;;;;;;;5.10;1.20;;;;;;;21.57;86.60;99024.98;105580;1257;73822;-62
2023/08/03 07:41:52;;;;;;;2.10;0.90;;;;;;;21.56;84.98;99023.30;105625;1259;82476;-62
2023/08/03 07:44:19;;;;;;;4.90;1.20;;;;;;;21.56;84.34;99020.63;105290;1254;302070;-61
2023/08/03 07:46:47;;;;;;;3.80;1.20;;;;;;;21.56;83.94;99016.69;105759;1257;69048;-61
2023/08/03 07:49:14;;;;;;;5.00;1.10;;;;;;;21.54;83.54;99013.57;105590;1257;69033;-62
2023/08/03 07:51:41;;;;;;;3.70;0.90;;;;;;;21.52;82.22;99011.66;105542;1256;73864;-63
2023/08/03 07:54:08;;;;;;;2.80;1.10;;;;;;;21.52;81.95;99007.56;105503;1259;83338;-63
2023/08/03 07:56:35;;;;;;;5.20;1.40;;;;;;;21.51;81.57;99004.50;105456;1257;72690;-63
2023/08/03 07:59:03;;;;;;;4.50;1.80;;;;;;;21.53;81.23;99004.94;105477;1252;69196;-63
2023/08/03 08:01:31;;;;;;;4.70;1.20;;;;;;;21.58;80.11;99011.35;105517;1258;69122;-63
2023/08/03 08:03:59;;;;;;;3.80;1.00;;;;;;;21.63;78.90;99009.37;105487;1257;73998;-63
2023/08/03 08:06:26;;;;;;;4.10;1.30;;;;;;;21.68;78.87;99014.02;105495;1257;83339;-63
2023/08/03 08:08:53;;;;;;;5.20;1.00;;;;;;;21.75;78.23;99011.88;105446;1259;74343;-63
2023/08/03 08:11:20;;;;;;;6.10;0.90;;;;;;;21.79;78.55;99013.95;105497;1253;69097;-63
2023/08/03 08:13:47;;;;;;;5.70;1.10;;;;;;;21.82;81.81;99015.36;105506;1259;69176;-63
2023/08/03 08:16:15;;;;;;;4.20;1.00;;;;;;;21.85;82.71;99018.84;105518;1257;73851;-64
2023/08/03 08:18:42;;;;;;;3.50;1.00;;;;;;;21.85;81.00;99022.54;105447;1257;83497;-63
2023/08/03 08:21:11;;;;;;;3.10;1.00;;;;;;;21.83;79.67;99030.36;105516;1254;73517;-63
2023/08/03 08:23:39;;;;;;;4.80;1.10;;;;;;;21.81;78.22;99035.06;105513;1257;69187;-64
2023/08/03 08:26:15;;;;;;;2.70;0.80;;;;;;;21.78;77.35;99032.35;105518;1256;69205;-64
2023/08/03 08:28:43;;;;;;;2.80;1.10;;;;;;;21.74;76.75;99026.27;105562;1254;73696;-63
2023/08/03 08:31:27;;;;;;;7.80;1.10;;;;;;;21.72;76.78;99026.80;105468;1256;82243;-64
2023/08/03 08:34:01;;;;;;;6.80;1.00;;;;;;;21.75;76.71;99027.81;105452;1257;73750;-64
2023/08/03 08:36:28;;;;;;;4.90;0.90;;;;;;;21.87;76.34;99030.02;105487;1257;69208;-63
2023/08/03 08:38:56;;;;;;;4.90;1.10;;;;;;;22.05;75.15;99038.52;105505;1253;69170;-63
2023/08/03 08:41:23;;;;;;;1.90;0.60;;;;;;;22.25;73.62;99046.92;105466;1258;73959;-63
2023/08/03 08:43:49;;;;;;;7.70;0.80;;;;;;;22.35;72.91;99037.23;105444;1254;82413;-63
2023/08/03 08:46:16;;;;;;;3.40;0.90;;;;;;;22.48;72.95;99038.29;105494;1255;73644;-63
2023/08/03 08:48:44;;;;;;;4.60;0.90;;;;;;;22.60;72.77;99036.36;105528;1257;69166;-62
2023/08/03 08:51:15;;;;;;;3.00;1.00;;;;;;;22.67;73.74;99040.28;105049;1263;69170;-63
2023/08/03 08:53:42;;;;;;;3.50;0.80;;;;;;;22.68;76.91;99040.48;105049;1261;75104;-63
2023/08/03 08:56:13;;;;;;;2.70;0.90;;;;;;;22.69;76.11;99044.48;104640;1269;83359;-62
2023/08/03 08:58:43;;;;;;;3.50;1.00;;;;;;;22.71;75.45;99044.23;104258;1270;72685;-62
2023/08/03 09:01:12;;;;;;;1.90;0.60;;;;;;;22.78;73.56;99044.91;104020;1279;69260;-62
2023/08/03 09:03:47;;;;;;;2.80;0.90;;;;;;;22.87;72.67;99048.91;103925;1278;70827;-62
2023/08/03 09:06:21;;;;;;;2.90;0.70;;;;;;;22.94;71.51;99049.05;103270;1289;75175;-63
2023/08/03 09:08:58;;;;;;;4.30;1.20;;;;;;;22.93;70.68;99037.61;103313;1284;83310;-63
2023/08/03 09:11:38;;;;;;;2.70;0.70;;;;;;;22.92;69.97;99045.70;103620;1279;72689;-63
2023/08/03 09:14:10;;;;;;;7.30;1.60;;;;;;;22.94;69.39;99050.81;103820;1281;69393;-62
2023/08/03 09:16:37;;;;;;;4.80;0.90;;;;;;;23.09;68.79;99057.64;104410;1276;69408;-63
2023/08/03 09:19:05;;;;;;;2.10;0.90;;;;;;;23.29;68.59;99051.23;104787;1268;74959;-63
2023/08/03 09:21:33;;;;;;;3.70;0.80;;;;;;;23.45;68.08;99057.55;105003;1266;83668;-62
2023/08/03 09:24:16;;;;;;;4.70;1.20;;;;;;;23.50;66.46;99060.66;104808;1264;73700;-62
2023/08/03 09:26:46;;;;;;;1.40;0.70;;;;;;;23.62;65.87;99058.33;105048;1265;69148;-63
2023/08/03 09:29:16;;;;;;;;;;;;;;;23.80;66.19;99060.38;104674;1267;69182;-63
2023/08/03 09:31:46;;;;;;;3.00;0.50;;;;;;;24.02;66.48;99061.96;104307;1277;73948;-63
2023/08/03 09:34:16;;;;;;;2.90;0.80;;;;;;;24.14;70.39;99064.88;103756;1280;82465;-63
2023/08/03 09:36:49;;;;;;;4.90;0.70;;;;;;;24.18;71.90;99062.98;103698;1277;72897;-63
2023/08/03 09:39:38;;;;;;;2.80;0.80;;;;;;;24.27;70.26;99064.10;103611;1278;69140;-62
2023/08/03 09:42:06;;;;;;;3.60;0.80;;;;;;;24.26;65.76;99067.95;103709;1276;69190;-63
2023/08/03 09:44:33;;;;;;;3.60;1.10;;;;;;;24.23;64.70;99070.77;103931;1278;73978;-63
2023/08/03 09:47:01;;;;;;;1.80;0.70;;;;;;;24.25;64.30;99069.63;104415;1273;83319;-62
2023/08/03 09:49:29;;;;;;;4.10;1.00;;;;;;;24.29;63.72;99068.53;104790;1260;73664;-62
2023/08/03 09:51:57;;;;;;;2.80;0.80;;;;;;;24.32;63.22;99076.38;105150;1255;69073;-62
2023/08/03 09:54:55;;;;;;;3.50;1.20;;;;;;;24.36;61.79;99082.91;105216;1260;69197;-63
2023/08/03 09:57:29;;;;;;;2.90;0.80;;;;;;;24.28;60.43;99073.21;105013;1264;73832;-62
2023/08/03 10:00:06;;;;;;;4.40;0.70;;;;;;;24.29;60.79;99069.20;105052;1266;82672;-62
2023/08/03 10:02:44;;;;;;;3.10;1.30;;;;;;;24.38;60.69;99074.26;104971;1260;73477;-63
2023/08/03 10:05:17;;;;;;;3.90;1.00;;;;;;;24.34;60.00;99077.01;104990;1264;69198;-63
2023/08/03 10:07:57;;;;;;;4.60;0.90;;;;;;;24.26;59.73;99071.70;104992;1266;69256;-64
2023/08/03 10:10:27;;;;;;;4.90;1.00;;;;;;;24.18;59.53;99077.47;104962;1260;75032;-66
2023/08/03 10:12:57;;;;;;;5.20;1.10;;;;;;;24.11;59.36;99071.52;105062;1264;82519;-63
2023/08/03 10:15:25;;;;;;;2.60;0.90;;;;;;;24.14;59.72;99073.46;105229;1255;72597;-61
2023/08/03 10:17:52;;;;;;;4.20;0.70;;;;;;;24.21;58.92;99075.88;105515;1267;69184;-64
2023/08/03 10:20:20;;;;;;;3.20;0.70;;;;;;;24.42;61.16;99081.14;105478;1257;69196;-63
2023/08/03 10:23:12;;;;;;;3.60;0.90;;;;;;;24.58;62.72;99074.59;105471;1258;73783;-63
2023/08/03 10:25:55;;;;;;;2.00;0.90;;;;;;;24.46;59.63;99075.13;105453;1254;83800;-63
2023/08/03 10:28:26;;;;;;;4.50;0.90;;;;;;;24.28;59.09;99074.32;105492;1257;74069;-64
2023/08/03 10:31:07;;;;;;;4.00;0.80;;;;;;;24.08;58.54;99075.91;105489;1257;68998;-64
2023/08/03 10:33:46;;;;;;;3.90;1.00;;;;;;;23.97;58.85;99087.48;105524;1252;69071;-63
2023/08/03 10:36:28;;;;;;;;;;;;;;;23.81;57.67;99091.27;105523;1254;75062;-63
2023/08/03 10:38:57;;;;;;;11.40;2.20;;;;;;;23.65;58.31;99085.02;105520;1257;83244;-63
2023/08/03 10:41:29;;;;;;;4.80;1.20;;;;;;;23.52;58.47;99093.58;105507;1253;73626;-63
2023/08/03 10:44:05;;;;;;;5.50;0.90;;;;;;;23.40;58.75;99100.63;105498;1257;69189;-62
2023/08/03 10:46:35;;;;;;;5.40;1.20;;;;;;;23.28;58.54;99094.84;105491;1257;69187;-63
2023/08/03 10:49:23;;;;;;;3.90;1.10;;;;;;;23.28;58.99;99091.90;105508;1254;73823;-66
2023/08/03 10:51:52;;;;;;;3.60;0.70;;;;;;;23.50;59.55;99088.67;105344;1257;82927;-63
2023/08/03 10:54:28;;;;;;;3.10;0.90;;;;;;;24.13;60.07;99084.98;105541;1256;73681;-63
2023/08/03 10:57:08;;;;;;;2.50;1.10;;;;;;;24.70;59.04;99078.16;105503;1254;69073;-63
2023/08/03 10:59:40;;;;;;;3.30;0.70;;;;;;;24.90;59.20;99070.64;105540;1257;69107;-62
2023/08/03 11:02:12;;;;;;;2.80;0.70;;;;;;;25.12;61.24;99071.61;105489;1256;74180;-63
2023/08/03 11:04:40;;;;;;;3.60;1.10;;;;;;;25.06;58.46;99068.57;105517;1257;83610;-63
2023/08/03 11:07:11;;;;;;;4.50;1.10;;;;;;;24.88;55.90;99079.36;105499;1257;72741;-63
2023/08/03 11:09:38;;;;;;;22.50;2.50;;;;;;;24.67;56.20;99088.14;105309;1255;69059;-63
2023/08/03 11:12:07;;;;;;;35.90;5.10;;;;;;;24.45;60.02;99104.33;105523;1258;69071;-63
2023/08/03 11:14:35;;;;;;;8.00;1.00;;;;;;;24.15;58.86;99110.98;105529;1254;73721;-63
2023/08/03 11:17:02;;;;;;;2.10;0.80;;;;;;;23.82;56.34;99110.23;105512;1256;82468;-64
2023/08/03 11:19:32;;;;;;;6.20;0.90;;;;;;;23.58;56.89;99108.17;105449;1254;73793;-64
2023/08/03 11:22:00;;;;;;;5.40;1.00;;;;;;;23.61;57.10;99101.38;105455;1257;69201;-64
2023/08/03 11:24:30;;;;;;;4.50;0.90;;;;;;;24.14;57.72;99099.86;105553;1256;69145;-64
2023/08/03 11:26:58;;;;;;;4.10;1.20;;;;;;;24.85;58.31;99091.60;105524;1255;75142;-64
2023/08/03 11:29:25;;;;;;;16.60;2.80;;;;;;;25.66;58.27;99086.83;105485;1255;83595;-63